Time;durP1;ratioP1;P1;durP2;ratioP2;P2;SDS_P1;SDS_P2;PMS_P1;PMS_P2;Temp;Humidity;BMP_temperature;BMP_pressure;BME280_temperature;BME280_humidity;BME280_pressure;Samples;Min_cycle;Max_cycle;Signal;HPM_P1;HPM_P2
2022/01/22 00:01:56;;;;;;;11.48;5.00;;;2.60;99.90;;;;;;5035580;28;20042;-91
2022/01/22 00:04:22;;;;;;;14.13;5.45;;;2.70;99.90;;;;;;5035493;28;20029;-91
2022/01/22 00:06:51;;;;;;;15.32;5.72;;;2.70;99.90;;;;;;5037161;28;20049;-91
2022/01/22 00:09:18;;;;;;;14.20;4.95;;;2.70;99.90;;;;;;5039780;28;20029;-92
2022/01/22 00:11:52;;;;;;;15.40;5.10;;;2.70;99.90;;;;;;5036831;28;20029;-92
2022/01/22 00:14:23;;;;;;;;;;;2.60;99.90;;;;;;5038250;28;20037;-91
2022/01/22 00:16:50;;;;;;;13.23;4.80;;;2.60;99.90;;;;;;5036550;28;20385;-91
2022/01/22 00:19:16;;;;;;;17.17;5.00;;;2.50;99.90;;;;;;5037125;28;20033;-92
2022/01/22 00:21:42;;;;;;;15.45;5.07;;;2.50;99.90;;;;;;5037979;28;20441;-91
2022/01/22 00:24:10;;;;;;;20.20;5.68;;;2.50;99.90;;;;;;5037745;28;20037;-92
2022/01/22 00:26:36;;;;;;;14.45;5.18;;;2.50;99.90;;;;;;5036176;28;20032;-92
2022/01/22 00:29:02;;;;;;;16.92;4.97;;;2.50;99.90;;;;;;5034529;28;20017;-92
2022/01/22 00:31:28;;;;;;;16.13;5.15;;;2.40;99.90;;;;;;5036572;28;20030;-91
2022/01/22 00:33:54;;;;;;;15.10;4.90;;;2.40;99.90;;;;;;5040471;28;20489;-91
2022/01/22 00:36:20;;;;;;;14.48;5.35;;;2.40;99.90;;;;;;5034149;28;20029;-91
2022/01/22 00:38:46;;;;;;;10.38;4.82;;;2.40;99.90;;;;;;5035147;28;20580;-91
2022/01/22 00:41:11;;;;;;;17.13;6.90;;;2.40;99.90;;;;;;5033748;28;20033;-92
2022/01/22 00:43:37;;;;;;;15.93;5.30;;;2.30;99.90;;;;;;5034077;28;20116;-92
2022/01/22 00:46:03;;;;;;;14.05;5.40;;;2.30;99.90;;;;;;5033951;28;20091;-91
2022/01/22 00:48:29;;;;;;;13.85;5.80;;;2.30;99.90;;;;;;5034080;28;20026;-91
2022/01/22 00:50:56;;;;;;;14.00;5.28;;;2.40;99.90;;;;;;5033553;28;20120;-91
2022/01/22 00:53:24;;;;;;;15.55;5.65;;;2.30;99.90;;;;;;5033677;28;20448;-91
2022/01/22 00:55:50;;;;;;;24.73;6.15;;;2.40;99.90;;;;;;5017563;28;20042;-92
2022/01/22 00:58:15;;;;;;;18.45;5.57;;;2.40;99.90;;;;;;5033851;28;20513;-91
2022/01/22 01:00:41;;;;;;;16.35;5.63;;;2.40;99.90;;;;;;5037050;28;20116;-92
2022/01/22 01:03:07;;;;;;;16.23;5.22;;;2.30;99.90;;;;;;5033968;28;20021;-91
2022/01/22 01:05:33;;;;;;;12.32;5.03;;;2.30;99.90;;;;;;5034229;28;20026;-91
2022/01/22 01:07:58;;;;;;;17.98;5.57;;;2.30;99.90;;;;;;5033338;28;20076;-92
2022/01/22 01:10:24;;;;;;;15.02;4.60;;;2.30;99.90;;;;;;5033363;28;20657;-92
2022/01/22 01:12:51;;;;;;;16.92;5.13;;;2.30;99.90;;;;;;5037008;28;20037;-90
2022/01/22 01:34:22;;;;;;;12.43;4.82;;;2.30;99.90;;;;;;5040641;28;20548;-93
2022/01/22 01:36:48;;;;;;;14.05;5.95;;;2.20;99.90;;;;;;5032904;28;20486;-92
2022/01/22 01:39:23;;;;;;;13.32;4.93;;;2.20;99.90;;;;;;5036207;28;20025;-92
2022/01/22 01:42:04;;;;;;;16.33;5.03;;;2.20;99.90;;;;;;5032917;28;20187;-93
2022/01/22 01:44:41;;;;;;;13.80;4.80;;;2.30;99.90;;;;;;5032642;28;20033;-92
2022/01/22 01:47:09;;;;;;;18.58;5.28;;;2.20;99.90;;;;;;5032542;28;20026;-92
2022/01/22 01:49:36;;;;;;;16.63;4.78;;;2.20;99.90;;;;;;5035381;28;20061;-92
2022/01/22 01:52:05;;;;;;;13.75;5.32;;;2.10;99.90;;;;;;5032483;28;20025;-92
2022/01/22 01:54:59;;;;;;;20.27;6.10;;;2.20;99.90;;;;;;5032765;28;20032;-92
2022/01/22 01:57:38;;;;;;;11.52;4.50;;;2.10;99.90;;;;;;5011139;28;20038;-93
2022/01/22 02:00:13;;;;;;;13.10;4.72;;;2.10;99.90;;;;;;5011229;28;20407;-92
2022/01/22 02:02:41;;;;;;;18.10;5.53;;;2.10;99.90;;;;;;5011314;28;20050;-92
2022/01/22 02:05:09;;;;;;;15.32;5.30;;;2.10;99.90;;;;;;4978697;28;20073;-91
2022/01/22 02:07:38;;;;;;;10.77;4.93;;;2.10;99.90;;;;;;4996089;28;20037;-91
2022/01/22 02:10:07;;;;;;;18.23;4.72;;;2.10;99.90;;;;;;4994688;28;20116;-93
2022/01/22 02:23:45;;;;;;;12.27;4.68;;;2.10;99.90;;;;;;5010995;28;20096;-91
2022/01/22 02:26:14;;;;;;;11.88;4.68;;;2.10;99.90;;;;;;4994335;28;20049;-92
2022/01/22 02:28:47;;;;;;;13.10;4.47;;;2.00;99.90;;;;;;5014609;28;20040;-92
2022/01/22 02:31:30;;;;;;;12.98;5.18;;;2.00;99.90;;;;;;5031585;28;20029;-91
2022/01/22 02:39:10;;;;;;;11.75;4.50;;;2.00;99.90;;;;;;5033448;28;20634;-94
2022/01/22 02:41:41;;;;;;;14.43;4.57;;;2.00;99.90;;;;;;5030890;28;20041;-91
2022/01/22 02:44:21;;;;;;;14.05;5.20;;;2.00;99.90;;;;;;5031238;28;20122;-92
2022/01/22 02:46:48;;;;;;;13.90;4.75;;;1.90;99.90;;;;;;5031843;28;20058;-92
2022/01/22 02:49:14;;;;;;;14.75;4.82;;;1.80;99.90;;;;;;5032934;28;20025;-92
2022/01/22 02:51:40;;;;;;;12.82;4.60;;;1.80;99.90;;;;;;5031306;28;20033;-92
2022/01/22 02:54:06;;;;;;;16.20;5.10;;;1.80;99.90;;;;;;5033307;28;20025;-93
2022/01/22 02:56:31;;;;;;;13.73;4.57;;;1.80;99.90;;;;;;5034826;28;20029;-91
2022/01/22 02:58:59;;;;;;;15.88;5.13;;;1.80;99.90;;;;;;5033493;28;20030;-93
2022/01/22 03:01:25;;;;;;;14.02;5.10;;;1.80;99.90;;;;;;5033838;28;20219;-93
2022/01/22 03:03:51;;;;;;;12.77;4.57;;;1.80;99.90;;;;;;5032894;28;20262;-93
2022/01/22 03:06:16;;;;;;;10.07;4.88;;;1.80;99.90;;;;;;5031426;28;20021;-92
2022/01/22 03:08:45;;;;;;;14.48;4.57;;;1.80;99.90;;;;;;5031716;28;20026;-93
2022/01/22 03:11:22;;;;;;;12.20;5.28;;;1.80;99.90;;;;;;5036102;28;20029;-93
2022/01/22 03:16:54;;;;;;;16.98;4.82;;;1.70;99.90;;;;;;5014292;28;20036;-91
2022/01/22 03:22:16;;;;;;;14.77;4.80;;;1.80;99.90;;;;;;5031125;28;20107;-91
2022/01/22 03:27:29;;;;;;;13.02;4.93;;;1.70;99.90;;;;;;5031657;28;20080;-92
2022/01/22 03:29:56;;;;;;;16.10;5.72;;;1.70;99.90;;;;;;5032554;28;20029;-91
2022/01/22 03:32:23;;;;;;;18.02;5.53;;;1.80;99.90;;;;;;5029784;28;20117;-91
2022/01/22 03:34:58;;;;;;;11.23;5.07;;;1.70;99.90;;;;;;5033296;28;20095;-92
2022/01/22 03:37:26;;;;;;;13.68;5.18;;;1.70;99.90;;;;;;5034046;28;20061;-91
2022/01/22 03:39:52;;;;;;;14.93;5.35;;;1.70;99.90;;;;;;5034105;28;20025;-91
2022/01/22 03:42:18;;;;;;;14.60;5.00;;;1.60;99.90;;;;;;5034070;28;20525;-92
2022/01/22 03:44:44;;;;;;;15.15;4.55;;;1.60;99.90;;;;;;5038938;28;20025;-91
2022/01/22 03:47:10;;;;;;;15.82;5.32;;;1.60;99.90;;;;;;5039305;28;20022;-91
2022/01/22 03:49:35;;;;;;;21.50;5.15;;;1.60;99.90;;;;;;5037518;28;20104;-92
2022/01/22 03:52:01;;;;;;;13.32;5.15;;;1.70;99.90;;;;;;5034710;28;20075;-91
2022/01/22 03:54:27;;;;;;;14.93;5.03;;;1.60;99.90;;;;;;5034043;28;20025;-91
2022/01/22 03:56:53;;;;;;;12.15;4.78;;;1.60;99.90;;;;;;5040859;28;20104;-91
2022/01/22 03:59:19;;;;;;;11.63;4.35;;;1.60;99.90;;;;;;5037830;28;20089;-93
2022/01/22 04:04:28;;;;;;;16.00;5.35;;;1.60;99.90;;;;;;5040054;28;20053;-92
2022/01/22 04:09:22;;;;;;;13.57;5.35;;;1.60;99.90;;;;;;5037629;28;20033;-91
2022/01/22 04:11:48;;;;;;;13.93;4.68;;;1.60;99.90;;;;;;5035181;28;20033;-94
2022/01/22 04:14:16;;;;;;;14.95;4.45;;;1.60;99.90;;;;;;5041747;28;20076;-90
2022/01/22 04:16:56;;;;;;;14.30;5.35;;;1.60;99.90;;;;;;5038754;28;20029;-93
2022/01/22 04:24:51;;;;;;;24.92;5.05;;;1.60;99.90;;;;;;5043770;28;20028;-91
2022/01/22 04:27:23;;;;;;;16.05;5.10;;;1.60;99.90;;;;;;5041756;28;20513;-91
2022/01/22 04:29:50;;;;;;;12.38;4.72;;;1.60;99.90;;;;;;5041757;28;20035;-92
2022/01/22 04:32:15;;;;;;;12.77;4.72;;;1.60;99.90;;;;;;5043202;28;20029;-91
2022/01/22 04:34:41;;;;;;;10.48;4.65;;;1.60;99.90;;;;;;5057277;28;20117;-92
2022/01/22 04:37:08;;;;;;;11.82;4.53;;;1.60;99.90;;;;;;5058155;28;20006;-91
2022/01/22 04:39:36;;;;;;;10.98;4.30;;;1.60;99.90;;;;;;5058924;28;20033;-92
2022/01/22 04:42:03;;;;;;;11.73;4.10;;;1.60;99.90;;;;;;5058042;28;20044;-91
2022/01/22 04:45:13;;;;;;;14.93;4.60;;;1.50;99.90;;;;;;5057352;28;20041;-92
2022/01/22 04:48:07;;;;;;;16.30;5.60;;;1.50;99.90;;;;;;5046475;28;20093;-92
2022/01/22 04:55:46;;;;;;;13.73;4.50;;;1.50;99.90;;;;;;5058583;28;20064;-91
2022/01/22 04:58:12;;;;;;;14.75;4.97;;;1.50;99.90;;;;;;5057985;28;20036;-92
2022/01/22 05:00:42;;;;;;;11.88;5.07;;;1.50;99.90;;;;;;5057882;28;20021;-92
2022/01/22 05:03:09;;;;;;;13.73;5.20;;;1.50;99.90;;;;;;5052739;28;20085;-92
2022/01/22 05:05:35;;;;;;;11.82;4.78;;;1.60;99.90;;;;;;5057853;28;20110;-91
2022/01/22 05:08:01;;;;;;;14.63;5.18;;;1.50;99.90;;;;;;5058076;28;20073;-92
2022/01/22 05:10:27;;;;;;;15.55;5.03;;;1.50;99.90;;;;;;5057788;28;20041;-92
2022/01/22 05:12:53;;;;;;;12.60;4.70;;;1.50;99.90;;;;;;5058106;28;20017;-92
2022/01/22 05:15:20;;;;;;;15.00;5.90;;;1.40;99.90;;;;;;5035182;28;20021;-91
2022/01/22 05:17:47;;;;;;;15.57;5.35;;;1.40;99.90;;;;;;5033687;28;20028;-92
2022/01/22 05:23:05;;;;;;;17.58;5.43;;;1.40;99.90;;;;;;5034097;28;20034;-92
2022/01/22 05:25:37;;;;;;;13.23;4.97;;;1.40;99.90;;;;;;5032839;28;20082;-92
2022/01/22 05:38:31;;;;;;;13.50;4.80;;;1.40;99.90;;;;;;5034106;28;20072;-92
2022/01/22 05:40:57;;;;;;;17.98;4.90;;;1.40;99.90;;;;;;5033001;28;20067;-91
2022/01/22 05:43:22;;;;;;;18.23;5.53;;;1.50;99.90;;;;;;5034048;28;20053;-92
2022/01/22 05:45:48;;;;;;;11.98;4.72;;;1.40;99.90;;;;;;5034849;28;20482;-92
2022/01/22 05:48:14;;;;;;;15.30;4.80;;;1.50;99.90;;;;;;5033966;28;20014;-92
2022/01/22 05:51:02;;;;;;;14.88;5.22;;;1.40;99.90;;;;;;5032125;28;20050;-92
2022/01/22 05:53:45;;;;;;;15.93;5.35;;;1.40;99.90;;;;;;5032182;28;20040;-90
2022/01/22 06:01:38;;;;;;;15.85;5.40;;;1.40;99.90;;;;;;5033939;28;20095;-91
2022/01/22 06:04:04;;;;;;;18.65;5.70;;;1.40;99.90;;;;;;5033342;28;20026;-91
2022/01/22 06:06:30;;;;;;;10.52;5.63;;;1.40;99.90;;;;;;5032949;28;20112;-92
2022/01/22 06:08:57;;;;;;;9.65;4.53;;;1.50;99.90;;;;;;5039600;28;20110;-91
2022/01/22 06:11:25;;;;;;;12.95;4.70;;;1.50;99.90;;;;;;5036556;28;20053;-91
2022/01/22 06:13:51;;;;;;;12.25;4.85;;;1.50;99.90;;;;;;5035891;28;20154;-91
2022/01/22 06:16:20;;;;;;;13.55;5.97;;;1.40;99.90;;;;;;5031227;28;20029;-92
2022/01/22 06:18:45;;;;;;;17.33;5.43;;;1.40;99.90;;;;;;5031419;28;20171;-91
2022/01/22 06:21:11;;;;;;;12.10;5.47;;;1.40;99.90;;;;;;5032527;28;20112;-91
2022/01/22 06:23:39;;;;;;;16.15;6.07;;;1.30;99.90;;;;;;5031038;28;20389;-91
2022/01/22 06:26:07;;;;;;;16.67;5.68;;;1.30;99.90;;;;;;5031325;28;20033;-92
2022/01/22 06:28:33;;;;;;;14.18;6.40;;;1.30;99.90;;;;;;5030944;28;20025;-91
2022/01/22 06:31:00;;;;;;;15.55;5.20;;;1.40;99.90;;;;;;5032482;28;20048;-92
2022/01/22 06:33:26;;;;;;;12.15;6.40;;;1.30;99.90;;;;;;5037736;28;20079;-93
2022/01/22 06:35:52;;;;;;;14.73;5.68;;;1.30;99.90;;;;;;5030759;28;20029;-92
2022/01/22 06:38:19;;;;;;;14.45;6.22;;;1.30;99.90;;;;;;5030753;28;20474;-91
2022/01/22 06:43:29;;;;;;;14.48;5.50;;;1.20;99.90;;;;;;5031935;28;20591;-92
2022/01/22 06:45:55;;;;;;;23.88;6.75;;;1.30;99.90;;;;;;5031190;28;20034;-92
2022/01/22 06:48:21;;;;;;;13.98;6.03;;;1.30;99.90;;;;;;5031290;28;20037;-91
2022/01/22 06:50:47;;;;;;;15.05;6.40;;;1.40;99.90;;;;;;5034727;28;20411;-91
2022/01/22 06:53:13;;;;;;;13.98;6.75;;;1.30;99.90;;;;;;5030395;28;20044;-91
2022/01/22 06:55:43;;;;;;;15.52;6.47;;;1.40;99.90;;;;;;5030705;28;20040;-91
2022/01/22 06:58:09;;;;;;;18.20;6.68;;;1.40;99.90;;;;;;5030517;28;20018;-91
2022/01/22 07:00:35;;;;;;;12.80;6.85;;;1.40;99.90;;;;;;5030836;28;20048;-91
2022/01/22 07:03:02;;;;;;;18.42;7.90;;;1.40;99.90;;;;;;5030855;28;20037;-92
2022/01/22 07:05:28;;;;;;;14.98;7.80;;;1.30;99.90;;;;;;5030836;28;20032;-91
2022/01/22 07:07:54;;;;;;;13.60;6.30;;;1.30;99.90;;;;;;5029564;28;20025;-92
2022/01/22 07:10:20;;;;;;;14.82;6.80;;;1.30;99.90;;;;;;5030809;28;20021;-92
2022/01/22 07:12:46;;;;;;;13.88;6.45;;;1.40;99.90;;;;;;5032725;28;20025;-91
2022/01/22 07:15:12;;;;;;;14.75;6.25;;;1.30;99.90;;;;;;5034612;28;20025;-93
2022/01/22 07:17:40;;;;;;;12.15;6.68;;;1.30;99.90;;;;;;5030676;28;20567;-91
2022/01/22 07:20:13;;;;;;;13.32;6.13;;;1.20;99.90;;;;;;5030784;28;20029;-93
2022/01/22 07:25:05;;;;;;;16.70;6.57;;;1.30;99.90;;;;;;5031602;28;20533;-93
2022/01/22 07:27:31;;;;;;;11.80;6.45;;;1.30;99.90;;;;;;5032150;28;20032;-93
2022/01/22 07:29:58;;;;;;;14.43;6.40;;;1.30;99.90;;;;;;5029878;28;20021;-91
2022/01/22 07:32:34;;;;;;;15.13;6.88;;;1.30;99.90;;;;;;5030155;28;20022;-91
2022/01/22 07:34:59;;;;;;;17.20;7.18;;;1.40;99.90;;;;;;5030382;28;20116;-91
2022/01/22 07:37:25;;;;;;;15.88;7.20;;;1.40;99.90;;;;;;5029852;28;20493;-90
2022/01/22 07:39:51;;;;;;;13.77;6.68;;;1.30;99.90;;;;;;5031726;28;20055;-91
2022/01/22 07:42:17;;;;;;;16.40;7.28;;;1.30;99.90;;;;;;5032542;28;20058;-93
2022/01/22 07:44:43;;;;;;;18.52;9.57;;;1.40;99.90;;;;;;5031781;28;20026;-92
2022/01/22 07:47:09;;;;;;;22.00;10.35;;;1.30;99.90;;;;;;5031100;28;20026;-93
2022/01/22 07:49:44;;;;;;;18.50;9.45;;;1.30;99.90;;;;;;5032744;28;20032;-92
2022/01/22 07:52:10;;;;;;;17.42;8.45;;;1.40;99.90;;;;;;5030113;28;20025;-91
2022/01/22 07:54:35;;;;;;;15.18;7.68;;;1.40;99.90;;;;;;5032086;28;20026;-92
2022/01/22 07:57:02;;;;;;;16.35;7.65;;;1.40;99.90;;;;;;5031008;28;20531;-90
2022/01/22 07:59:30;;;;;;;18.05;7.90;;;1.40;99.90;;;;;;5034978;28;20040;-90
2022/01/22 08:01:56;;;;;;;13.60;8.10;;;1.50;99.90;;;;;;5034343;28;20034;-90
2022/01/22 08:04:26;;;;;;;15.13;7.78;;;1.60;99.90;;;;;;5031365;28;20383;-90
2022/01/22 08:06:53;;;;;;;12.90;7.55;;;1.70;99.90;;;;;;5042617;28;20022;-90
2022/01/22 08:09:21;;;;;;;18.50;8.20;;;1.70;99.90;;;;;;5025887;28;20024;-90
2022/01/22 08:11:48;;;;;;;15.50;8.00;;;1.70;99.90;;;;;;5033568;28;20045;-90
2022/01/22 08:14:14;;;;;;;18.38;8.02;;;1.70;99.90;;;;;;5028129;28;20091;-90
2022/01/22 08:16:40;;;;;;;14.95;7.25;;;1.80;99.90;;;;;;5031676;28;20056;-89
2022/01/22 08:19:05;;;;;;;15.93;8.40;;;1.80;99.90;;;;;;5031260;28;20097;-89
2022/01/22 08:21:31;;;;;;;16.23;7.90;;;1.70;99.90;;;;;;5035643;28;20040;-90
2022/01/22 08:23:57;;;;;;;15.68;8.60;;;1.70;99.90;;;;;;5034801;28;20406;-90
2022/01/22 08:26:27;;;;;;;16.77;8.75;;;1.80;99.90;;;;;;5036492;28;20029;-90
2022/01/22 08:28:53;;;;;;;19.90;9.00;;;1.80;99.90;;;;;;5036330;28;20025;-90
2022/01/22 08:31:37;;;;;;;16.92;9.02;;;1.90;99.90;;;;;;5036652;28;20039;-90
2022/01/22 08:36:52;;;;;;;18.90;10.30;;;2.00;99.90;;;;;;5038319;28;20059;-89
2022/01/22 08:39:18;;;;;;;17.05;10.65;;;2.10;99.90;;;;;;5045405;28;20013;-90
2022/01/22 08:41:44;;;;;;;18.02;10.18;;;2.10;99.90;;;;;;5037614;28;20030;-89
2022/01/22 08:44:12;;;;;;;15.38;8.82;;;2.20;99.90;;;;;;5037744;28;20104;-90
2022/01/22 08:46:39;;;;;;;15.00;8.90;;;2.20;99.90;;;;;;5037290;28;20026;-90
2022/01/22 08:49:06;;;;;;;20.35;10.48;;;2.20;99.90;;;;;;5038026;28;20033;-89
2022/01/22 08:51:33;;;;;;;17.38;10.32;;;2.30;99.90;;;;;;5038797;28;20036;-89
2022/01/22 08:54:00;;;;;;;19.67;10.05;;;2.30;99.90;;;;;;5035417;28;20123;-90
2022/01/22 08:56:27;;;;;;;13.00;9.00;;;2.30;99.90;;;;;;5035448;28;20021;-90
2022/01/22 08:58:53;;;;;;;23.10;9.60;;;2.40;99.90;;;;;;5034079;28;20022;-89
2022/01/22 09:01:19;;;;;;;13.68;9.55;;;2.50;99.90;;;;;;5032854;28;20568;-89
2022/01/22 09:03:45;;;;;;;15.63;9.48;;;2.50;99.90;;;;;;5035262;28;20031;-90
2022/01/22 09:06:12;;;;;;;15.05;8.98;;;2.60;99.90;;;;;;5035256;28;20036;-90
2022/01/22 09:08:39;;;;;;;19.67;9.27;;;2.70;99.90;;;;;;5035233;28;20037;-90
2022/01/22 09:11:06;;;;;;;17.13;9.38;;;2.80;99.90;;;;;;5035097;28;20469;-90
2022/01/22 09:13:33;;;;;;;12.75;8.75;;;2.80;99.90;;;;;;5034296;28;20485;-89
2022/01/22 09:15:59;;;;;;;15.73;9.07;;;2.80;99.90;;;;;;5034347;28;20025;-89
2022/01/22 09:18:25;;;;;;;17.33;9.82;;;2.90;99.90;;;;;;5033969;28;20295;-89
2022/01/22 09:23:17;;;;;;;15.85;8.60;;;3.00;99.90;;;;;;5034328;28;20025;-89
2022/01/22 09:25:44;;;;;;;14.90;8.80;;;3.10;99.90;;;;;;5032066;28;20132;-89
2022/01/22 09:28:14;;;;;;;16.90;8.35;;;3.30;99.90;;;;;;5033428;28;20018;-89
2022/01/22 09:30:42;;;;;;;13.55;8.13;;;3.40;99.90;;;;;;5034110;28;20025;-89
2022/01/22 09:33:07;;;;;;;15.45;7.55;;;3.40;99.90;;;;;;5033259;28;20060;-90
2022/01/22 09:35:33;;;;;;;17.58;7.38;;;3.50;99.90;;;;;;5034219;28;20072;-90
2022/01/22 09:37:59;;;;;;;15.18;7.60;;;3.60;99.90;;;;;;5034671;28;20076;-89
2022/01/22 09:40:27;;;;;;;15.10;7.78;;;3.60;99.90;;;;;;5033169;28;20026;-90
2022/01/22 09:42:52;;;;;;;16.25;8.35;;;3.70;99.90;;;;;;5032564;28;20059;-89
2022/01/22 09:45:20;;;;;;;18.77;8.55;;;3.60;99.90;;;;;;5033521;28;20085;-90
2022/01/22 09:47:48;;;;;;;13.85;7.38;;;3.60;99.90;;;;;;5033621;28;20406;-90
2022/01/22 09:50:16;;;;;;;15.55;7.25;;;3.70;99.90;;;;;;5032415;28;20036;-87
2022/01/22 09:52:45;;;;;;;19.10;8.15;;;3.80;99.90;;;;;;5031916;28;20022;-87
2022/01/22 09:55:11;;;;;;;12.27;7.03;;;3.80;99.90;;;;;;5032157;28;20076;-88
2022/01/22 09:57:37;;;;;;;15.90;8.23;;;3.90;99.90;;;;;;5030750;28;20029;-87
2022/01/22 10:00:08;;;;;;;19.85;8.90;;;3.90;99.90;;;;;;5030158;28;20278;-87
2022/01/22 10:02:42;;;;;;;10.63;7.68;;;3.90;99.90;;;;;;5020739;28;20034;-87
2022/01/22 10:05:26;;;;;;;;;;;4.00;99.90;;;;;;5018411;28;20610;-87
2022/01/22 10:07:53;;;;;;;14.63;7.90;;;4.00;99.90;;;;;;5018010;28;19905;-88
2022/01/22 10:10:19;;;;;;;15.45;8.65;;;4.10;99.90;;;;;;5020502;28;20045;-88
2022/01/22 10:12:52;;;;;;;15.85;8.80;;;4.20;99.90;;;;;;5020647;28;20052;-87
2022/01/22 10:15:20;;;;;;;18.27;7.88;;;4.30;99.90;;;;;;5016360;28;20060;-87
2022/01/22 10:17:55;;;;;;;18.23;8.57;;;4.40;99.90;;;;;;5018377;28;20081;-87
2022/01/22 10:20:21;;;;;;;19.33;7.88;;;4.50;99.90;;;;;;5018079;28;20034;-93
2022/01/22 10:22:51;;;;;;;17.23;8.45;;;4.40;99.90;;;;;;5021094;28;20034;-90
2022/01/22 10:25:31;;;;;;;13.80;7.57;;;4.50;99.90;;;;;;5021447;28;20311;-90
2022/01/22 10:28:03;;;;;;;11.35;6.90;;;4.60;99.90;;;;;;5022018;28;20022;-91
2022/01/22 10:30:39;;;;;;;14.65;7.65;;;4.60;99.90;;;;;;5022105;28;20017;-91
2022/01/22 10:33:35;;;;;;;13.90;8.00;;;4.70;99.90;;;;;;5021027;28;20029;-90
2022/01/22 10:36:23;;;;;;;19.17;8.18;;;4.70;99.90;;;;;;5022261;28;20022;-87
2022/01/22 10:38:50;;;;;;;18.60;7.85;;;4.90;99.90;;;;;;5022558;28;20025;-90
2022/01/22 10:41:19;;;;;;;16.35;7.88;;;4.90;99.90;;;;;;5023291;28;20030;-92
2022/01/22 10:43:55;;;;;;;15.25;8.25;;;5.00;99.90;;;;;;5019050;28;20337;-92
2022/01/22 10:46:42;;;;;;;14.40;8.27;;;5.00;99.90;;;;;;5018797;28;20081;-90
2022/01/22 10:49:22;;;;;;;17.30;8.00;;;5.10;99.90;;;;;;5021395;28;20021;-90
2022/01/22 10:51:50;;;;;;;12.13;7.32;;;5.10;99.90;;;;;;5018238;28;20080;-90
2022/01/22 10:54:19;;;;;;;12.70;7.35;;;5.10;99.90;;;;;;5013555;28;20025;-90
2022/01/22 10:56:46;;;;;;;13.18;7.50;;;5.20;99.90;;;;;;5016160;28;20022;-91
2022/01/22 10:59:17;;;;;;;13.30;7.68;;;5.30;99.90;;;;;;5013815;28;20037;-90
2022/01/22 11:01:55;;;;;;;12.13;7.72;;;5.30;99.90;;;;;;5015341;28;20549;-91
2022/01/22 11:04:25;;;;;;;12.52;7.32;;;5.40;99.90;;;;;;5011153;28;20024;-90
2022/01/22 11:06:59;;;;;;;15.02;7.15;;;5.40;99.90;;;;;;5017349;28;20156;-91
2022/01/22 11:09:28;;;;;;;13.05;6.85;;;5.40;99.90;;;;;;5018256;28;20026;-90
2022/01/22 11:11:55;;;;;;;13.20;5.72;;;5.50;99.90;;;;;;5013435;28;20024;-91
2022/01/22 11:14:21;;;;;;;11.85;5.95;;;5.60;99.90;;;;;;5012231;28;20017;-91
2022/01/22 11:16:48;;;;;;;10.88;6.53;;;5.70;99.90;;;;;;5041282;28;20029;-90
2022/01/22 11:19:21;;;;;;;14.63;6.50;;;5.80;99.90;;;;;;5059417;28;20039;-92
2022/01/22 11:21:52;;;;;;;14.45;5.80;;;5.80;99.90;;;;;;5060994;28;20052;-91
2022/01/22 11:24:27;;;;;;;14.85;5.97;;;5.80;99.90;;;;;;5061214;28;20033;-91
2022/01/22 11:26:55;;;;;;;13.75;5.38;;;5.80;99.90;;;;;;5061574;28;20096;-92
2022/01/22 11:29:24;;;;;;;13.05;5.28;;;5.90;99.90;;;;;;5059640;28;20017;-90
2022/01/22 11:31:52;;;;;;;9.25;5.25;;;5.90;99.90;;;;;;5060371;28;20063;-90
2022/01/22 11:34:21;;;;;;;9.85;4.80;;;6.00;99.90;;;;;;5060540;28;20028;-91
2022/01/22 11:37:31;;;;;;;11.00;4.97;;;6.10;99.90;;;;;;5061045;28;20024;-91
2022/01/22 11:40:18;;;;;;;13.27;6.07;;;6.20;99.90;;;;;;5022734;28;20048;-92
2022/01/22 11:43:00;;;;;;;18.55;5.28;;;6.30;99.90;;;;;;5060945;28;20072;-91
2022/01/22 11:45:36;;;;;;;10.60;4.88;;;6.30;99.90;;;;;;5053806;28;20029;-90
2022/01/22 11:48:20;;;;;;;11.35;4.65;;;6.40;99.90;;;;;;5039859;28;20264;-91
2022/01/22 11:50:49;;;;;;;14.38;5.20;;;6.50;99.90;;;;;;5040212;28;20021;-90
2022/01/22 11:53:32;;;;;;;8.95;4.88;;;6.50;99.90;;;;;;5040276;28;20321;-90
2022/01/22 11:56:24;;;;;;;12.82;4.72;;;6.60;99.90;;;;;;5043199;28;20060;-91
2022/01/22 11:58:56;;;;;;;14.60;5.13;;;6.70;99.90;;;;;;5044802;28;20357;-90
2022/01/22 12:01:50;;;;;;;9.48;4.70;;;6.90;99.90;;;;;;5043627;28;20119;-88
2022/01/22 12:04:19;;;;;;;12.50;4.85;;;7.20;99.90;;;;;;5045419;28;20041;-89
2022/01/22 12:07:01;;;;;;;13.88;3.78;;;7.50;99.90;;;;;;5044343;28;20029;-85
2022/01/22 12:09:50;;;;;;;9.38;3.75;;;7.60;99.90;;;;;;5044790;28;20044;-86
2022/01/22 12:15:20;;;;;;;6.25;2.70;;;7.60;99.90;;;;;;5036317;28;20037;-91
2022/01/22 12:23:07;;;;;;;5.13;2.95;;;7.40;99.90;;;;;;5039163;28;20041;-91
2022/01/22 12:25:36;;;;;;;4.25;2.70;;;7.40;99.90;;;;;;5034499;28;20028;-91
2022/01/22 12:28:05;;;;;;;7.07;2.65;;;7.30;99.90;;;;;;5034389;28;20025;-91
2022/01/22 12:30:38;;;;;;;5.63;2.78;;;7.40;99.90;;;;;;5040186;28;20021;-79
2022/01/22 12:33:11;;;;;;;3.80;2.53;;;7.40;99.90;;;;;;5044055;28;20037;-84
2022/01/22 12:35:40;;;;;;;5.28;2.55;;;7.40;99.90;;;;;;5036597;28;20037;-84
2022/01/22 12:38:22;;;;;;;8.38;2.50;;;7.30;99.90;;;;;;5034962;28;20075;-83
2022/01/22 12:40:53;;;;;;;7.90;2.95;;;7.30;99.90;;;;;;5033090;28;20026;-84
2022/01/22 12:43:27;;;;;;;7.07;3.00;;;7.20;99.90;;;;;;5033044;28;20098;-83
2022/01/22 12:46:01;;;;;;;9.30;3.00;;;7.20;99.90;;;;;;5032984;28;20486;-83
2022/01/22 12:48:32;;;;;;;8.38;3.10;;;7.10;99.90;;;;;;5032891;28;20033;-85
2022/01/22 12:51:04;;;;;;;7.05;3.15;;;7.10;99.90;;;;;;5032887;28;20033;-83
2022/01/22 12:53:30;;;;;;;5.95;2.97;;;7.10;99.90;;;;;;5032801;28;20100;-83
2022/01/22 12:58:28;;;;;;;7.18;3.47;;;7.10;99.90;;;;;;5033185;28;20087;-83
2022/01/22 13:01:11;;;;;;;6.68;3.45;;;7.10;99.90;;;;;;5032881;28;20060;-83
2022/01/22 13:03:40;;;;;;;8.82;3.80;;;7.20;99.90;;;;;;5048212;28;20033;-83
2022/01/22 13:06:06;;;;;;;7.55;3.70;;;7.10;99.90;;;;;;5031077;28;20056;-83
2022/01/22 13:08:33;;;;;;;9.25;4.18;;;7.10;99.90;;;;;;5032528;28;20486;-84
2022/01/22 13:11:04;;;;;;;8.32;4.07;;;7.10;99.90;;;;;;5032799;28;20168;-84
2022/01/22 13:13:31;;;;;;;8.13;3.50;;;7.30;99.90;;;;;;5031738;28;20022;-85
2022/01/22 13:16:11;;;;;;;10.23;4.32;;;7.20;99.90;;;;;;5031382;28;20029;-86
2022/01/22 13:18:42;;;;;;;7.78;3.28;;;7.10;99.90;;;;;;5032397;28;20071;-86
2022/01/22 13:21:09;;;;;;;9.48;3.53;;;7.10;99.90;;;;;;5032813;28;20083;-85
2022/01/22 13:23:35;;;;;;;10.38;3.70;;;7.10;99.90;;;;;;5032212;28;20025;-84
2022/01/22 13:26:01;;;;;;;7.28;3.78;;;7.00;99.90;;;;;;5032685;28;20033;-84
2022/01/22 13:28:34;;;;;;;10.32;4.72;;;7.00;99.90;;;;;;5032166;28;20462;-84
2022/01/22 13:31:08;;;;;;;9.35;4.70;;;6.90;99.90;;;;;;5032304;28;20040;-84
2022/01/22 13:36:13;;;;;;;9.32;4.60;;;6.90;99.90;;;;;;5032333;28;20164;-84
2022/01/22 13:49:44;;;;;;;8.95;4.32;;;6.90;99.90;;;;;;5032421;28;20106;-84
2022/01/22 13:52:17;;;;;;;12.07;4.28;;;6.90;99.90;;;;;;5032093;28;20447;-85
2022/01/22 13:54:48;;;;;;;9.48;4.18;;;6.90;99.90;;;;;;5032378;28;20033;-86
2022/01/22 13:57:19;;;;;;;7.68;4.18;;;6.90;99.90;;;;;;5032508;28;20025;-86
2022/01/22 13:59:49;;;;;;;13.13;4.30;;;6.90;99.90;;;;;;5030811;28;20109;-84
2022/01/22 14:02:38;;;;;;;10.55;4.18;;;7.00;99.90;;;;;;5032942;28;20041;-84
2022/01/22 14:05:07;;;;;;;8.93;4.63;;;7.00;99.90;;;;;;5032473;28;20052;-84
2022/01/22 14:07:36;;;;;;;10.43;5.28;;;7.00;99.90;;;;;;5031463;28;20021;-84
2022/01/22 14:10:05;;;;;;;12.45;4.97;;;7.10;99.90;;;;;;5031615;28;20032;-84
2022/01/22 14:12:54;;;;;;;10.38;5.43;;;7.20;99.90;;;;;;5032129;28;20025;-82
2022/01/22 14:15:26;;;;;;;9.10;4.82;;;7.20;99.90;;;;;;5031604;28;20075;-84
2022/01/22 14:18:21;;;;;;;15.70;5.05;;;7.10;99.90;;;;;;5031213;28;20036;-84
2022/01/22 14:20:52;;;;;;;11.02;4.80;;;7.10;99.90;;;;;;5029974;28;20424;-84
2022/01/22 14:23:31;;;;;;;10.15;5.00;;;7.10;99.90;;;;;;5030997;28;20486;-84
2022/01/22 14:26:04;;;;;;;9.80;5.00;;;7.20;99.90;;;;;;5031458;28;20053;-84
2022/01/22 14:28:45;;;;;;;9.00;4.47;;;7.30;99.90;;;;;;5031235;28;20029;-84
2022/01/22 14:31:32;;;;;;;7.93;4.10;;;7.40;99.90;;;;;;5031037;28;20355;-84
2022/01/22 14:34:07;;;;;;;12.20;4.50;;;7.40;99.90;;;;;;5046772;28;20463;-84
2022/01/22 14:36:44;;;;;;;10.75;4.70;;;7.50;99.90;;;;;;5031184;28;20025;-84
2022/01/22 14:45:07;;;;;;;10.70;4.30;;;7.50;99.90;;;;;;5011235;28;20545;-84
2022/01/22 14:47:33;;;;;;;7.70;4.57;;;7.40;99.90;;;;;;5030929;28;20474;-84
2022/01/22 14:50:07;;;;;;;10.80;4.78;;;7.40;99.90;;;;;;5029751;28;20026;-84
2022/01/22 14:52:33;;;;;;;16.73;6.20;;;7.20;99.90;;;;;;5030862;28;20029;-84
2022/01/22 14:55:02;;;;;;;13.00;4.53;;;7.10;99.90;;;;;;5031557;28;20337;-84
2022/01/22 14:57:30;;;;;;;9.95;4.75;;;7.10;99.90;;;;;;5031142;28;20029;-84
2022/01/22 14:59:57;;;;;;;19.45;10.85;;;7.00;99.90;;;;;;5029869;28;20022;-85
2022/01/22 15:02:23;;;;;;;15.05;5.47;;;7.00;99.90;;;;;;5030816;28;20033;-84